sensor_id;sensor_type;location;lat;lon;timestamp;temperature;humidity
46340;DHT22;47273;49.274;8.708;2022-07-18T04:09:02;16.30;64.60
46340;DHT22;47273;49.274;8.708;2022-07-18T04:11:31;16.50;63.20
46340;DHT22;47273;49.274;8.708;2022-07-18T04:13:57;16.50;62.70
46340;DHT22;47273;49.274;8.708;2022-07-18T04:16:23;16.60;62.30
46340;DHT22;47273;49.274;8.708;2022-07-18T04:18:50;16.70;62.10
46340;DHT22;47273;49.274;8.708;2022-07-18T04:21:16;16.90;62.40
46340;DHT22;47273;49.274;8.708;2022-07-18T04:23:42;17.00;61.80
46340;DHT22;47273;49.274;8.708;2022-07-18T04:26:08;17.10;61.60
46340;DHT22;47273;49.274;8.708;2022-07-18T04:28:38;17.10;62.80
46340;DHT22;47273;49.274;8.708;2022-07-18T04:31:04;17.20;61.40
46340;DHT22;47273;49.274;8.708;2022-07-18T04:33:31;17.20;61.80
46340;DHT22;47273;49.274;8.708;2022-07-18T04:35:59;17.20;61.90
46340;DHT22;47273;49.274;8.708;2022-07-18T04:38:30;17.20;62.20
46340;DHT22;47273;49.274;8.708;2022-07-18T04:40:59;17.10;62.80
46340;DHT22;47273;49.274;8.708;2022-07-18T04:43:25;17.20;62.10
46340;DHT22;47273;49.274;8.708;2022-07-18T04:45:51;17.20;61.90
46340;DHT22;47273;49.274;8.708;2022-07-18T04:48:16;17.40;61.30
46340;DHT22;47273;49.274;8.708;2022-07-18T04:50:42;17.50;61.30
46340;DHT22;47273;49.274;8.708;2022-07-18T04:53:10;17.50;61.40
46340;DHT22;47273;49.274;8.708;2022-07-18T04:55:36;17.50;61.50
46340;DHT22;47273;49.274;8.708;2022-07-18T04:58:01;17.50;61.30
46340;DHT22;47273;49.274;8.708;2022-07-18T05:00:27;17.50;61.60
46340;DHT22;47273;49.274;8.708;2022-07-18T05:02:55;17.60;61.30
46340;DHT22;47273;49.274;8.708;2022-07-18T05:05:23;17.60;60.90
46340;DHT22;47273;49.274;8.708;2022-07-18T05:07:50;17.60;61.20
46340;DHT22;47273;49.274;8.708;2022-07-18T05:10:17;17.70;60.90
46340;DHT22;47273;49.274;8.708;2022-07-18T05:12:44;17.70;60.40
46340;DHT22;47273;49.274;8.708;2022-07-18T05:15:12;17.70;60.70
46340;DHT22;47273;49.274;8.708;2022-07-18T05:17:47;17.70;62.40
46340;DHT22;47273;49.274;8.708;2022-07-18T05:20:15;17.60;63.60
46340;DHT22;47273;49.274;8.708;2022-07-18T05:22:45;17.60;65.10
46340;DHT22;47273;49.274;8.708;2022-07-18T05:25:14;17.70;64.80
46340;DHT22;47273;49.274;8.708;2022-07-18T05:27:40;17.70;65.20
46340;DHT22;47273;49.274;8.708;2022-07-18T05:30:07;17.80;64.10
46340;DHT22;47273;49.274;8.708;2022-07-18T05:32:33;17.90;64.20
46340;DHT22;47273;49.274;8.708;2022-07-18T05:34:59;17.90;63.70
46340;DHT22;47273;49.274;8.708;2022-07-18T05:37:28;18.00;62.70
46340;DHT22;47273;49.274;8.708;2022-07-18T05:39:54;18.10;61.40
46340;DHT22;47273;49.274;8.708;2022-07-18T05:42:20;18.10;60.20
46340;DHT22;47273;49.274;8.708;2022-07-18T05:44:46;18.20;60.00
46340;DHT22;47273;49.274;8.708;2022-07-18T05:47:11;18.30;60.30
46340;DHT22;47273;49.274;8.708;2022-07-18T05:49:38;18.40;60.40
46340;DHT22;47273;49.274;8.708;2022-07-18T05:52:07;18.50;60.30
46340;DHT22;47273;49.274;8.708;2022-07-18T05:54:33;18.60;59.70
46340;DHT22;47273;49.274;8.708;2022-07-18T05:56:59;18.70;59.90
46340;DHT22;47273;49.274;8.708;2022-07-18T05:59:24;18.80;59.00
46340;DHT22;47273;49.274;8.708;2022-07-18T06:01:53;18.80;59.40
46340;DHT22;47273;49.274;8.708;2022-07-18T06:04:28;18.90;59.30
46340;DHT22;47273;49.274;8.708;2022-07-18T06:06:53;19.00;58.50
46340;DHT22;47273;49.274;8.708;2022-07-18T06:09:19;19.10;57.90
46340;DHT22;47273;49.274;8.708;2022-07-18T06:11:45;19.10;57.90
46340;DHT22;47273;49.274;8.708;2022-07-18T06:14:10;19.20;58.00
46340;DHT22;47273;49.274;8.708;2022-07-18T06:16:38;19.30;57.70
46340;DHT22;47273;49.274;8.708;2022-07-18T06:19:07;19.40;57.80
46340;DHT22;47273;49.274;8.708;2022-07-18T06:21:33;19.50;57.20
46340;DHT22;47273;49.274;8.708;2022-07-18T06:23:58;19.60;57.20
46340;DHT22;47273;49.274;8.708;2022-07-18T06:26:24;19.80;57.20
46340;DHT22;47273;49.274;8.708;2022-07-18T06:28:50;19.90;57.00
46340;DHT22;47273;49.274;8.708;2022-07-18T06:31:16;19.90;56.50
46340;DHT22;47273;49.274;8.708;2022-07-18T06:33:43;20.10;57.00
46340;DHT22;47273;49.274;8.708;2022-07-18T06:36:08;20.20;57.00
46340;DHT22;47273;49.274;8.708;2022-07-18T06:38:37;20.30;56.50
46340;DHT22;47273;49.274;8.708;2022-07-18T06:41:04;20.40;56.50
46340;DHT22;47273;49.274;8.708;2022-07-18T06:43:32;20.50;56.60
46340;DHT22;47273;49.274;8.708;2022-07-18T06:45:58;20.50;56.30
46340;DHT22;47273;49.274;8.708;2022-07-18T06:48:23;20.60;56.10
46340;DHT22;47273;49.274;8.708;2022-07-18T06:50:49;20.70;56.20
46340;DHT22;47273;49.274;8.708;2022-07-18T06:53:15;20.80;56.10
46340;DHT22;47273;49.274;8.708;2022-07-18T06:55:41;20.90;56.00
46340;DHT22;47273;49.274;8.708;2022-07-18T06:58:06;20.90;55.70
46340;DHT22;47273;49.274;8.708;2022-07-18T07:00:32;21.00;55.30
46340;DHT22;47273;49.274;8.708;2022-07-18T07:02:58;21.10;55.20
46340;DHT22;47273;49.274;8.708;2022-07-18T07:05:23;21.10;55.40
46340;DHT22;47273;49.274;8.708;2022-07-18T07:07:49;21.20;55.30
46340;DHT22;47273;49.274;8.708;2022-07-18T07:10:16;21.40;55.00
46340;DHT22;47273;49.274;8.708;2022-07-18T07:12:48;21.40;54.90
46340;DHT22;47273;49.274;8.708;2022-07-18T07:15:15;21.50;54.90
46340;DHT22;47273;49.274;8.708;2022-07-18T07:17:42;21.60;54.60
46340;DHT22;47273;49.274;8.708;2022-07-18T07:20:09;21.70;54.50
46340;DHT22;47273;49.274;8.708;2022-07-18T07:23:01;21.80;54.50
46340;DHT22;47273;49.274;8.708;2022-07-18T07:25:32;21.90;54.20
46340;DHT22;47273;49.274;8.708;2022-07-18T07:28:13;22.00;53.80
46340;DHT22;47273;49.274;8.708;2022-07-18T07:30:39;22.20;53.70
46340;DHT22;47273;49.274;8.708;2022-07-18T07:33:07;22.30;53.00
46340;DHT22;47273;49.274;8.708;2022-07-18T07:35:33;22.40;53.00
46340;DHT22;47273;49.274;8.708;2022-07-18T07:37:59;22.50;52.60
46340;DHT22;47273;49.274;8.708;2022-07-18T07:40:34;22.60;52.70
46340;DHT22;47273;49.274;8.708;2022-07-18T07:43:13;22.70;52.40
46340;DHT22;47273;49.274;8.708;2022-07-18T07:45:40;22.90;51.90
46340;DHT22;47273;49.274;8.708;2022-07-18T07:48:06;23.00;52.00
46340;DHT22;47273;49.274;8.708;2022-07-18T07:50:33;23.10;51.40
46340;DHT22;47273;49.274;8.708;2022-07-18T07:53:01;23.30;51.50
46340;DHT22;47273;49.274;8.708;2022-07-18T07:55:27;23.40;51.10
46340;DHT22;47273;49.274;8.708;2022-07-18T07:57:54;23.50;51.30
46340;DHT22;47273;49.274;8.708;2022-07-18T08:00:36;23.60;51.30
46340;DHT22;47273;49.274;8.708;2022-07-18T08:03:04;23.70;50.80
46340;DHT22;47273;49.274;8.708;2022-07-18T08:06:05;23.80;50.50
46340;DHT22;47273;49.274;8.708;2022-07-18T08:08:55;24.00;49.90
46340;DHT22;47273;49.274;8.708;2022-07-18T08:11:28;24.20;50.00
46340;DHT22;47273;49.274;8.708;2022-07-18T08:17:56;24.50;49.30
46340;DHT22;47273;49.274;8.708;2022-07-18T12:32:49;38.50;32.70
46340;DHT22;47273;49.274;8.708;2022-07-18T12:35:30;38.60;32.30
46340;DHT22;47273;49.274;8.708;2022-07-18T12:38:15;38.60;32.40
46340;DHT22;47273;49.274;8.708;2022-07-18T12:41:27;38.50;31.30
46340;DHT22;47273;49.274;8.708;2022-07-18T12:43:53;39.00;31.20
46340;DHT22;47273;49.274;8.708;2022-07-18T12:46:19;39.00;32.50
46340;DHT22;47273;49.274;8.708;2022-07-18T12:48:44;39.20;31.90
46340;DHT22;47273;49.274;8.708;2022-07-18T12:51:13;38.80;30.80
46340;DHT22;47273;49.274;8.708;2022-07-18T12:53:43;38.40;30.80
46340;DHT22;47273;49.274;8.708;2022-07-18T12:56:09;38.60;31.80
46340;DHT22;47273;49.274;8.708;2022-07-18T12:58:35;39.20;31.70
46340;DHT22;47273;49.274;8.708;2022-07-18T13:01:03;39.30;32.90
46340;DHT22;47273;49.274;8.708;2022-07-18T13:03:33;38.80;33.80
46340;DHT22;47273;49.274;8.708;2022-07-18T13:05:58;38.70;33.50
46340;DHT22;47273;49.274;8.708;2022-07-18T13:08:24;38.60;33.30
46340;DHT22;47273;49.274;8.708;2022-07-18T13:10:52;38.50;33.80
46340;DHT22;47273;49.274;8.708;2022-07-18T13:13:18;38.30;34.40
46340;DHT22;47273;49.274;8.708;2022-07-18T13:15:44;38.20;31.50
46340;DHT22;47273;49.274;8.708;2022-07-18T13:18:09;38.30;31.20
46340;DHT22;47273;49.274;8.708;2022-07-18T13:20:35;38.40;31.70
46340;DHT22;47273;49.274;8.708;2022-07-18T13:23:01;38.50;31.90
46340;DHT22;47273;49.274;8.708;2022-07-18T13:25:29;38.80;31.30
46340;DHT22;47273;49.274;8.708;2022-07-18T13:27:55;38.80;31.90
46340;DHT22;47273;49.274;8.708;2022-07-18T13:30:21;38.80;30.70
46340;DHT22;47273;49.274;8.708;2022-07-18T13:32:47;38.80;30.50
46340;DHT22;47273;49.274;8.708;2022-07-18T13:35:13;38.60;31.00
46340;DHT22;47273;49.274;8.708;2022-07-18T13:37:39;38.50;30.90
46340;DHT22;47273;49.274;8.708;2022-07-18T13:40:06;38.70;31.70
46340;DHT22;47273;49.274;8.708;2022-07-18T13:42:35;38.70;32.20
46340;DHT22;47273;49.274;8.708;2022-07-18T13:45:01;38.70;31.40
46340;DHT22;47273;49.274;8.708;2022-07-18T13:47:33;38.40;31.60
46340;DHT22;47273;49.274;8.708;2022-07-18T13:50:02;38.40;32.90
46340;DHT22;47273;49.274;8.708;2022-07-18T13:52:45;38.60;30.80
46340;DHT22;47273;49.274;8.708;2022-07-18T13:55:29;38.90;30.00
46340;DHT22;47273;49.274;8.708;2022-07-18T13:57:56;39.00;31.90
46340;DHT22;47273;49.274;8.708;2022-07-18T14:00:22;38.80;31.30
46340;DHT22;47273;49.274;8.708;2022-07-18T14:02:53;38.80;30.70
46340;DHT22;47273;49.274;8.708;2022-07-18T14:05:22;39.00;30.00
46340;DHT22;47273;49.274;8.708;2022-07-18T14:07:53;39.70;30.50
46340;DHT22;47273;49.274;8.708;2022-07-18T14:10:18;39.60;30.90
46340;DHT22;47273;49.274;8.708;2022-07-18T14:12:44;39.50;31.00
46340;DHT22;47273;49.274;8.708;2022-07-18T14:15:12;39.40;30.80
46340;DHT22;47273;49.274;8.708;2022-07-18T14:17:38;39.30;29.80
46340;DHT22;47273;49.274;8.708;2022-07-18T14:20:06;39.10;30.20
46340;DHT22;47273;49.274;8.708;2022-07-18T14:22:36;39.10;31.70
46340;DHT22;47273;49.274;8.708;2022-07-18T14:25:09;39.10;32.70
46340;DHT22;47273;49.274;8.708;2022-07-18T14:27:37;39.20;31.20
46340;DHT22;47273;49.274;8.708;2022-07-18T14:30:06;39.10;31.60
46340;DHT22;47273;49.274;8.708;2022-07-18T14:32:52;39.10;31.60
46340;DHT22;47273;49.274;8.708;2022-07-18T14:35:21;39.00;30.60
46340;DHT22;47273;49.274;8.708;2022-07-18T14:37:57;39.10;30.50
46340;DHT22;47273;49.274;8.708;2022-07-18T14:40:23;39.00;30.00
46340;DHT22;47273;49.274;8.708;2022-07-18T14:42:49;39.00;31.00
46340;DHT22;47273;49.274;8.708;2022-07-18T14:45:16;38.90;30.00
46340;DHT22;47273;49.274;8.708;2022-07-18T14:47:42;39.00;31.20
46340;DHT22;47273;49.274;8.708;2022-07-18T14:50:08;39.00;32.00
46340;DHT22;47273;49.274;8.708;2022-07-18T14:52:36;39.00;32.50
46340;DHT22;47273;49.274;8.708;2022-07-18T14:55:02;39.00;32.30
46340;DHT22;47273;49.274;8.708;2022-07-18T14:57:28;39.00;31.80
46340;DHT22;47273;49.274;8.708;2022-07-18T15:00:10;39.00;31.00
46340;DHT22;47273;49.274;8.708;2022-07-18T15:02:37;38.80;31.30
46340;DHT22;47273;49.274;8.708;2022-07-18T15:05:04;38.70;31.10
46340;DHT22;47273;49.274;8.708;2022-07-18T15:07:33;38.70;31.50
46340;DHT22;47273;49.274;8.708;2022-07-18T15:10:01;38.50;31.10
46340;DHT22;47273;49.274;8.708;2022-07-18T15:12:30;38.50;31.20
46340;DHT22;47273;49.274;8.708;2022-07-18T15:15:00;38.50;31.20
46340;DHT22;47273;49.274;8.708;2022-07-18T15:17:28;38.40;32.60
46340;DHT22;47273;49.274;8.708;2022-07-18T15:19:54;38.30;32.40
46340;DHT22;47273;49.274;8.708;2022-07-18T15:22:20;38.10;30.80
46340;DHT22;47273;49.274;8.708;2022-07-18T15:24:58;38.00;30.90
46340;DHT22;47273;49.274;8.708;2022-07-18T15:27:23;38.20;30.70
46340;DHT22;47273;49.274;8.708;2022-07-18T15:29:52;38.20;30.60
46340;DHT22;47273;49.274;8.708;2022-07-18T15:32:21;38.20;30.70
46340;DHT22;47273;49.274;8.708;2022-07-18T15:34:49;38.20;31.30
46340;DHT22;47273;49.274;8.708;2022-07-18T15:37:17;38.30;30.70
46340;DHT22;47273;49.274;8.708;2022-07-18T15:39:43;38.40;31.60
46340;DHT22;47273;49.274;8.708;2022-07-18T15:42:09;38.20;29.90
46340;DHT22;47273;49.274;8.708;2022-07-18T15:44:35;38.00;31.60
46340;DHT22;47273;49.274;8.708;2022-07-18T15:47:06;38.10;32.10
46340;DHT22;47273;49.274;8.708;2022-07-18T15:49:34;38.20;31.80
46340;DHT22;47273;49.274;8.708;2022-07-18T15:52:06;38.10;31.50
46340;DHT22;47273;49.274;8.708;2022-07-18T15:54:41;38.10;31.40
46340;DHT22;47273;49.274;8.708;2022-07-18T15:57:16;37.90;32.00
46340;DHT22;47273;49.274;8.708;2022-07-18T15:59:49;37.90;31.30
46340;DHT22;47273;49.274;8.708;2022-07-18T16:02:14;37.90;31.10
46340;DHT22;47273;49.274;8.708;2022-07-18T16:04:40;38.00;31.60
46340;DHT22;47273;49.274;8.708;2022-07-18T16:07:06;37.80;30.20
46340;DHT22;47273;49.274;8.708;2022-07-18T16:09:35;37.80;31.30
46340;DHT22;47273;49.274;8.708;2022-07-18T16:12:04;37.90;31.80
46340;DHT22;47273;49.274;8.708;2022-07-18T16:14:30;37.90;31.60
46340;DHT22;47273;49.274;8.708;2022-07-18T16:16:56;37.90;30.70
46340;DHT22;47273;49.274;8.708;2022-07-18T16:19:21;37.80;31.00
46340;DHT22;47273;49.274;8.708;2022-07-18T16:21:47;37.70;31.80
46340;DHT22;47273;49.274;8.708;2022-07-18T16:24:14;37.40;31.50
46340;DHT22;47273;49.274;8.708;2022-07-18T16:26:39;37.30;31.90
46340;DHT22;47273;49.274;8.708;2022-07-18T16:29:07;37.30;32.10
46340;DHT22;47273;49.274;8.708;2022-07-18T16:31:33;37.40;32.30
46340;DHT22;47273;49.274;8.708;2022-07-18T16:34:02;37.30;31.90
46340;DHT22;47273;49.274;8.708;2022-07-18T16:36:29;37.10;31.50
46340;DHT22;47273;49.274;8.708;2022-07-18T16:38:54;37.10;31.40
46340;DHT22;47273;49.274;8.708;2022-07-18T16:41:20;37.10;31.10
46340;DHT22;47273;49.274;8.708;2022-07-18T16:44:24;37.00;31.20
46340;DHT22;47273;49.274;8.708;2022-07-18T16:46:53;36.80;32.10
46340;DHT22;47273;49.274;8.708;2022-07-18T16:56:06;36.40;32.20
46340;DHT22;47273;49.274;8.708;2022-07-18T16:58:52;36.10;32.70
46340;DHT22;47273;49.274;8.708;2022-07-18T17:01:36;35.90;32.70
46340;DHT22;47273;49.274;8.708;2022-07-18T17:04:08;35.80;32.80
46340;DHT22;47273;49.274;8.708;2022-07-18T17:06:59;35.60;33.50
46340;DHT22;47273;49.274;8.708;2022-07-18T17:16:03;35.10;33.50
46340;DHT22;47273;49.274;8.708;2022-07-18T17:18:31;35.00;33.20
46340;DHT22;47273;49.274;8.708;2022-07-18T17:20:59;34.90;32.90
46340;DHT22;47273;49.274;8.708;2022-07-18T17:23:30;34.60;33.60
46340;DHT22;47273;49.274;8.708;2022-07-18T17:25:59;34.50;33.30
46340;DHT22;47273;49.274;8.708;2022-07-18T17:28:32;34.40;33.90
46340;DHT22;47273;49.274;8.708;2022-07-18T17:31:05;34.30;33.40
46340;DHT22;47273;49.274;8.708;2022-07-18T17:33:34;34.10;33.40
46340;DHT22;47273;49.274;8.708;2022-07-18T17:36:06;34.00;33.80
46340;DHT22;47273;49.274;8.708;2022-07-18T17:38:42;33.90;33.70
46340;DHT22;47273;49.274;8.708;2022-07-18T17:41:09;33.80;33.90
46340;DHT22;47273;49.274;8.708;2022-07-18T17:43:35;33.60;33.80
46340;DHT22;47273;49.274;8.708;2022-07-18T17:46:03;33.50;33.70
46340;DHT22;47273;49.274;8.708;2022-07-18T17:48:29;33.40;34.20
46340;DHT22;47273;49.274;8.708;2022-07-18T17:50:59;33.30;34.00
46340;DHT22;47273;49.274;8.708;2022-07-18T17:53:38;33.30;34.00
46340;DHT22;47273;49.274;8.708;2022-07-18T17:56:04;33.10;34.20
46340;DHT22;47273;49.274;8.708;2022-07-18T17:58:39;33.10;34.40
46340;DHT22;47273;49.274;8.708;2022-07-18T18:01:05;33.00;34.60
46340;DHT22;47273;49.274;8.708;2022-07-18T18:03:31;32.90;34.60
46340;DHT22;47273;49.274;8.708;2022-07-18T18:05:59;32.80;34.60
46340;DHT22;47273;49.274;8.708;2022-07-18T18:08:31;32.70;34.60
46340;DHT22;47273;49.274;8.708;2022-07-18T18:11:05;32.60;35.10
46340;DHT22;47273;49.274;8.708;2022-07-18T18:13:34;32.50;34.60
46340;DHT22;47273;49.274;8.708;2022-07-18T18:16:06;32.40;34.70
46340;DHT22;47273;49.274;8.708;2022-07-18T18:19:22;32.40;35.10
46340;DHT22;47273;49.274;8.708;2022-07-18T18:22:08;32.20;36.30
46340;DHT22;47273;49.274;8.708;2022-07-18T18:25:30;32.10;37.90
46340;DHT22;47273;49.274;8.708;2022-07-18T18:28:14;32.10;41.10
46340;DHT22;47273;49.274;8.708;2022-07-18T18:30:45;32.00;41.30
46340;DHT22;47273;49.274;8.708;2022-07-18T18:33:23;31.90;41.00
46340;DHT22;47273;49.274;8.708;2022-07-18T18:35:55;31.70;39.70
46340;DHT22;47273;49.274;8.708;2022-07-18T18:38:32;31.60;40.00
46340;DHT22;47273;49.274;8.708;2022-07-18T18:41:06;31.40;40.80
46340;DHT22;47273;49.274;8.708;2022-07-18T18:43:41;31.20;41.90
46340;DHT22;47273;49.274;8.708;2022-07-18T18:46:07;31.10;43.50
46340;DHT22;47273;49.274;8.708;2022-07-18T18:48:40;31.00;47.20
46340;DHT22;47273;49.274;8.708;2022-07-18T18:51:06;30.90;46.00
46340;DHT22;47273;49.274;8.708;2022-07-18T18:53:31;30.80;45.40
46340;DHT22;47273;49.274;8.708;2022-07-18T18:55:57;30.70;46.10
46340;DHT22;47273;49.274;8.708;2022-07-18T18:58:23;30.50;45.60
46340;DHT22;47273;49.274;8.708;2022-07-18T19:00:49;30.40;45.60
46340;DHT22;47273;49.274;8.708;2022-07-18T19:03:14;30.30;46.60
46340;DHT22;47273;49.274;8.708;2022-07-18T19:05:40;30.00;47.80
46340;DHT22;47273;49.274;8.708;2022-07-18T19:08:06;29.80;48.10
46340;DHT22;47273;49.274;8.708;2022-07-18T19:10:32;29.70;48.80
46340;DHT22;47273;49.274;8.708;2022-07-18T19:12:58;29.50;48.60
46340;DHT22;47273;49.274;8.708;2022-07-18T19:15:24;29.30;49.60
46340;DHT22;47273;49.274;8.708;2022-07-18T19:17:50;29.20;51.20
46340;DHT22;47273;49.274;8.708;2022-07-18T19:20:16;29.10;50.30
46340;DHT22;47273;49.274;8.708;2022-07-18T19:22:46;29.00;48.80
46340;DHT22;47273;49.274;8.708;2022-07-18T19:25:18;28.80;48.80
46340;DHT22;47273;49.274;8.708;2022-07-18T19:27:49;28.70;48.20
46340;DHT22;47273;49.274;8.708;2022-07-18T19:30:17;28.60;48.90
46340;DHT22;47273;49.274;8.708;2022-07-18T19:32:43;28.40;50.50
46340;DHT22;47273;49.274;8.708;2022-07-18T19:35:09;28.30;50.70
46340;DHT22;47273;49.274;8.708;2022-07-18T19:37:35;28.20;50.70
46340;DHT22;47273;49.274;8.708;2022-07-18T19:40:02;28.10;50.40
46340;DHT22;47273;49.274;8.708;2022-07-18T19:42:28;28.10;50.20
46340;DHT22;47273;49.274;8.708;2022-07-18T19:44:56;28.00;51.20
46340;DHT22;47273;49.274;8.708;2022-07-18T19:47:24;27.90;51.00
46340;DHT22;47273;49.274;8.708;2022-07-18T19:49:56;27.80;50.50
46340;DHT22;47273;49.274;8.708;2022-07-18T19:52:22;27.70;50.40
46340;DHT22;47273;49.274;8.708;2022-07-18T19:54:48;27.50;50.30
46340;DHT22;47273;49.274;8.708;2022-07-18T19:57:18;27.40;49.70
46340;DHT22;47273;49.274;8.708;2022-07-18T19:59:48;27.40;50.20
46340;DHT22;47273;49.274;8.708;2022-07-18T20:02:14;27.30;50.10
46340;DHT22;47273;49.274;8.708;2022-07-18T20:11:43;27.00;50.60
46340;DHT22;47273;49.274;8.708;2022-07-18T20:14:11;26.80;51.30
46340;DHT22;47273;49.274;8.708;2022-07-18T20:16:37;26.70;51.70
46340;DHT22;47273;49.274;8.708;2022-07-18T20:19:03;26.70;52.30
46340;DHT22;47273;49.274;8.708;2022-07-18T20:21:30;26.60;52.30
46340;DHT22;47273;49.274;8.708;2022-07-18T20:23:56;26.50;51.80
46340;DHT22;47273;49.274;8.708;2022-07-18T20:26:22;26.40;50.80
46340;DHT22;47273;49.274;8.708;2022-07-18T20:28:48;26.30;52.20
